createdAt,value
2019-01-25T00:00:30.270Z,28.30
2019-01-25T00:02:58.896Z,31.55
2019-01-25T00:05:34.474Z,31.97
2019-01-25T00:08:03.119Z,32.30
2019-01-25T00:10:32.777Z,33.13
2019-01-25T00:13:01.455Z,31.52
2019-01-25T00:15:30.084Z,33.25
2019-01-25T00:17:58.697Z,33.08
2019-01-25T00:20:27.412Z,31.90
2019-01-25T00:22:55.982Z,32.48
2019-01-25T00:25:24.558Z,30.72
2019-01-25T00:27:53.234Z,29.82
2019-01-25T00:30:22.792Z,31.62
2019-01-25T00:32:51.469Z,33.38
2019-01-25T00:35:20.074Z,31.35
2019-01-25T00:37:48.648Z,33.63
2019-01-25T00:40:19.667Z,34.58
2019-01-25T00:42:48.196Z,34.03
2019-01-25T00:45:17.852Z,34.23
2019-01-25T00:47:46.401Z,34.40
2019-01-25T00:50:20.299Z,35.52
2019-01-25T00:52:49.610Z,31.87
2019-01-25T00:55:22.374Z,32.35
2019-01-25T00:57:55.045Z,30.88
2019-01-25T01:00:25.765Z,30.12
2019-01-25T01:02:54.537Z,30.92
2019-01-25T01:05:23.472Z,33.73
2019-01-25T01:07:52.458Z,36.10
2019-01-25T01:10:21.894Z,33.78
2019-01-25T01:12:51.947Z,32.55
2019-01-25T01:15:21.193Z,34.55
2019-01-25T01:17:49.896Z,37.23
2019-01-25T01:20:20.185Z,38.98
2019-01-25T01:22:49.496Z,37.25
2019-01-25T01:25:18.522Z,39.10
2019-01-25T01:27:47.206Z,40.88
2019-01-25T01:30:18.761Z,39.85
2019-01-25T01:32:47.311Z,38.48
2019-01-25T01:35:16.005Z,35.65
2019-01-25T01:37:44.655Z,35.52
2019-01-25T01:40:22.438Z,39.92
2019-01-25T01:42:51.645Z,33.70
2019-01-25T01:45:20.541Z,35.70
2019-01-25T01:47:49.145Z,35.40
2019-01-25T01:50:18.852Z,35.15
2019-01-25T01:52:48.535Z,35.65
2019-01-25T01:55:17.271Z,35.43
2019-01-25T01:57:45.835Z,40.40
2019-01-25T02:00:20.031Z,41.27
2019-01-25T02:02:48.794Z,36.28
2019-01-25T02:05:17.823Z,39.90
2019-01-25T02:07:46.659Z,35.55
2019-01-25T02:10:20.626Z,40.20
2019-01-25T02:12:49.948Z,39.18
2019-01-25T02:15:21.063Z,40.10
2019-01-25T02:17:51.325Z,41.40
2019-01-25T02:20:27.594Z,39.60
2019-01-25T02:22:56.663Z,41.02
2019-01-25T02:25:25.290Z,38.33
2019-01-25T02:27:55.874Z,38.17
2019-01-25T02:30:25.783Z,36.50
2019-01-25T02:32:54.410Z,42.10
2019-01-25T02:35:23.400Z,42.50
2019-01-25T02:37:52.084Z,40.45
2019-01-25T02:40:23.020Z,44.25
2019-01-25T02:42:51.565Z,41.33
2019-01-25T02:45:20.201Z,40.25
2019-01-25T02:47:48.973Z,43.00
2019-01-25T02:50:20.884Z,44.70
2019-01-25T02:52:49.650Z,42.65
2019-01-25T02:55:18.563Z,39.25
2019-01-25T02:57:48.136Z,43.33
2019-01-25T03:00:22.306Z,40.55
2019-01-25T03:02:51.235Z,38.63
2019-01-25T03:05:21.528Z,41.02
2019-01-25T03:07:51.531Z,39.98
2019-01-25T03:10:28.564Z,41.10
2019-01-25T03:12:53.042Z,40.60
2019-01-25T03:15:23.917Z,47.73
2019-01-25T03:17:53.783Z,41.68
2019-01-25T03:20:22.766Z,46.75
2019-01-25T03:22:51.629Z,43.73
2019-01-25T03:25:23.583Z,46.18
2019-01-25T03:27:52.136Z,41.90
2019-01-25T03:30:26.242Z,45.33
2019-01-25T03:32:55.650Z,44.65
2019-01-25T03:35:25.678Z,45.38
2019-01-25T03:37:54.458Z,41.83
2019-01-25T03:40:25.358Z,47.23
2019-01-25T03:42:54.369Z,44.38
2019-01-25T03:45:23.965Z,44.08
2019-01-25T03:47:53.193Z,47.78
2019-01-25T03:50:24.551Z,47.05
2019-01-25T03:52:53.219Z,47.73
2019-01-25T03:55:23.948Z,38.80
2019-01-25T03:57:52.484Z,42.78
2019-01-25T04:00:23.609Z,40.20
2019-01-25T04:02:52.336Z,47.23
2019-01-25T04:05:21.035Z,41.75
2019-01-25T04:07:49.786Z,41.30
2019-01-25T04:10:23.897Z,44.80
2019-01-25T04:12:52.554Z,42.03
2019-01-25T04:15:25.980Z,41.60
2019-01-25T04:17:54.616Z,43.95
2019-01-25T04:20:26.332Z,45.05
2019-01-25T04:22:55.034Z,46.25
2019-01-25T04:25:24.369Z,46.00
2019-01-25T04:27:53.185Z,42.78
2019-01-25T04:30:24.362Z,46.50
2019-01-25T04:32:52.928Z,43.02
2019-01-25T04:35:21.394Z,40.73
2019-01-25T04:37:50.019Z,39.85
2019-01-25T04:40:19.241Z,44.05
2019-01-25T04:42:48.159Z,41.20
2019-01-25T04:45:21.133Z,41.55
2019-01-25T04:47:49.762Z,41.35
2019-01-25T04:50:26.251Z,48.15
2019-01-25T04:52:55.062Z,40.33
2019-01-25T04:55:28.774Z,40.80
2019-01-25T04:58:14.533Z,34.35
2019-01-25T05:00:43.158Z,41.07
2019-01-25T05:03:12.902Z,39.40
2019-01-25T05:05:42.832Z,43.50
2019-01-25T05:08:18.627Z,46.05
2019-01-25T05:10:47.105Z,37.97
2019-01-25T05:13:15.729Z,36.50
2019-01-25T05:15:44.370Z,40.88
2019-01-25T05:18:13.097Z,35.43
2019-01-25T05:20:41.895Z,36.43
2019-01-25T05:23:11.406Z,38.40
2019-01-25T05:25:39.954Z,36.98
2019-01-25T05:28:12.436Z,39.13
2019-01-25T05:30:44.054Z,38.47
2019-01-25T05:33:12.552Z,39.80
2019-01-25T05:35:43.200Z,36.50
2019-01-25T05:38:12.714Z,36.80
2019-01-25T05:40:42.227Z,40.17
2019-01-25T05:43:10.812Z,40.05
2019-01-25T05:45:42.809Z,39.95
2019-01-25T05:48:11.311Z,40.60
2019-01-25T05:50:39.951Z,45.75
2019-01-25T05:53:08.494Z,37.28
2019-01-25T05:55:37.120Z,38.83
2019-01-25T05:58:08.309Z,36.23
2019-01-25T06:00:38.532Z,40.93
2019-01-25T06:03:09.835Z,38.75
2019-01-25T06:05:38.676Z,40.83
2019-01-25T06:08:34.191Z,35.85
2019-01-25T06:11:05.225Z,37.13
2019-01-25T06:13:34.637Z,39.53
2019-01-25T06:16:03.589Z,35.28
2019-01-25T06:18:32.136Z,38.20
2019-01-25T06:21:00.966Z,41.37
2019-01-25T06:23:29.625Z,44.03
2019-01-25T06:26:00.065Z,47.35
2019-01-25T06:28:28.621Z,43.80
2019-01-25T06:30:58.166Z,42.40
2019-01-25T06:33:26.854Z,37.88
2019-01-25T06:35:55.468Z,39.70
2019-01-25T06:38:24.985Z,43.33
2019-01-25T06:40:53.588Z,40.90
2019-01-25T06:43:22.124Z,46.45
2019-01-25T06:45:50.607Z,42.62
2019-01-25T06:48:19.502Z,44.03
2019-01-25T06:50:48.065Z,44.67
2019-01-25T06:53:17.475Z,42.40
2019-01-25T06:55:46.005Z,46.50
2019-01-25T06:58:16.198Z,48.68
2019-01-25T07:00:49.037Z,51.37
2019-01-25T07:03:17.563Z,51.90
2019-01-25T07:05:46.101Z,54.05
2019-01-25T07:08:17.192Z,48.00
2019-01-25T07:10:45.732Z,46.20
2019-01-25T07:13:14.234Z,46.18
2019-01-25T07:15:42.701Z,40.35
2019-01-25T07:18:11.301Z,45.52
2019-01-25T07:20:39.921Z,44.13
2019-01-25T07:23:08.392Z,44.58
2019-01-25T07:25:37.017Z,39.75
2019-01-25T07:28:06.449Z,44.75
2019-01-25T07:30:35.171Z,42.93
2019-01-25T07:33:03.732Z,44.13
2019-01-25T07:35:33.213Z,45.80
2019-01-25T07:38:01.688Z,49.50
2019-01-25T07:40:30.303Z,45.37
2019-01-25T07:42:58.777Z,44.42
2019-01-25T07:45:27.397Z,46.37
2019-01-25T07:47:55.937Z,43.20
2019-01-25T07:50:25.363Z,44.50
2019-01-25T07:52:53.936Z,43.45
2019-01-25T07:55:22.555Z,41.50
2019-01-25T07:57:52.083Z,41.77
2019-01-25T08:00:21.088Z,41.75
2019-01-25T08:02:49.667Z,40.98
2019-01-25T08:05:18.190Z,35.35
2019-01-25T08:07:46.743Z,36.03
2019-01-25T08:10:20.666Z,34.78
2019-01-25T08:12:49.183Z,33.65
2019-01-25T08:15:20.532Z,34.75
2019-01-25T08:17:49.152Z,34.67
2019-01-25T08:20:18.736Z,36.58
2019-01-25T08:22:47.349Z,34.95
2019-01-25T08:25:16.010Z,33.02
2019-01-25T08:27:45.447Z,33.47
2019-01-25T08:30:22.413Z,33.13
2019-01-25T08:32:51.969Z,38.73
2019-01-25T08:35:20.981Z,38.20
2019-01-25T08:37:49.676Z,41.40
2019-01-25T08:40:18.829Z,37.20
2019-01-25T08:42:48.105Z,40.70
2019-01-25T08:45:17.934Z,38.50
2019-01-25T08:47:47.494Z,39.75
2019-01-25T08:50:25.017Z,37.85
2019-01-25T08:52:53.752Z,35.73
2019-01-25T08:55:22.646Z,35.73
2019-01-25T08:57:53.470Z,30.33
2019-01-25T09:00:26.527Z,34.07
2019-01-25T09:02:56.174Z,38.50
2019-01-25T09:05:24.938Z,39.23
2019-01-25T09:07:53.941Z,42.00
2019-01-25T09:10:27.374Z,40.27
2019-01-25T09:12:55.922Z,38.70
2019-01-25T09:15:32.765Z,35.25
2019-01-25T09:18:01.433Z,40.10
2019-01-25T09:20:30.084Z,36.33
2019-01-25T09:22:58.622Z,41.23
2019-01-25T09:25:27.153Z,33.02
2019-01-25T09:27:55.708Z,40.43
2019-01-25T09:30:28.481Z,42.60
2019-01-25T09:32:58.044Z,35.93
2019-01-25T09:35:26.518Z,35.13
2019-01-25T09:37:55.023Z,40.63
2019-01-25T09:40:26.485Z,34.93
2019-01-25T09:42:54.964Z,38.67
2019-01-25T09:45:23.750Z,32.10
2019-01-25T09:47:52.552Z,39.47
2019-01-25T09:50:24.146Z,26.77
2019-01-25T09:52:52.795Z,31.73
2019-01-25T09:55:25.066Z,33.40
2019-01-25T09:57:59.364Z,39.67
2019-01-25T10:00:36.770Z,37.63
2019-01-25T10:03:05.319Z,37.03
2019-01-25T10:05:33.995Z,46.90
2019-01-25T10:08:02.671Z,14.33
2019-01-25T10:10:31.306Z,35.97
2019-01-25T10:12:59.865Z,39.50
2019-01-25T10:15:29.844Z,44.13
2019-01-25T10:17:58.405Z,44.23
2019-01-25T10:20:27.046Z,28.83
2019-01-25T10:22:55.760Z,40.07
2019-01-25T10:25:24.282Z,33.77
2019-01-25T10:27:52.837Z,32.53
2019-01-25T10:30:28.135Z,36.93
2019-01-25T10:33:00.427Z,30.73
2019-01-25T10:35:31.619Z,35.63
2019-01-25T10:38:00.384Z,28.27
2019-01-25T10:40:28.849Z,43.00
2019-01-25T10:42:57.396Z,45.43
2019-01-25T10:45:34.757Z,41.50
2019-01-25T10:48:03.315Z,42.40
2019-01-25T10:50:31.922Z,38.30
2019-01-25T10:53:02.602Z,42.57
2019-01-25T10:55:32.171Z,39.57
2019-01-25T10:58:00.722Z,29.70
2019-01-25T11:00:30.407Z,36.20
2019-01-25T11:02:58.944Z,40.93
2019-01-25T11:05:31.132Z,33.80
2019-01-25T11:08:00.565Z,38.50
2019-01-25T11:10:29.127Z,38.95
2019-01-25T11:13:01.059Z,37.53
2019-01-25T11:15:28.429Z,29.20
2019-01-25T11:17:57.081Z,36.03
2019-01-25T11:20:26.397Z,28.47
2019-01-25T11:22:55.210Z,35.93
2019-01-25T11:25:29.179Z,37.83
2019-01-25T11:27:57.890Z,35.17
2019-01-25T11:30:26.497Z,22.17
2019-01-25T11:32:54.976Z,26.23
2019-01-25T11:35:23.591Z,34.27
2019-01-25T11:37:53.916Z,23.03
2019-01-25T11:40:25.214Z,27.87
2019-01-25T11:42:53.897Z,36.30
2019-01-25T11:45:23.430Z,34.63
2019-01-25T11:47:52.267Z,36.13
2019-01-25T11:50:21.701Z,36.17
2019-01-25T11:52:50.312Z,28.70
2019-01-25T11:55:19.916Z,23.07
2019-01-25T11:57:48.379Z,32.10
2019-01-25T12:00:22.845Z,40.88
2019-01-25T12:02:51.458Z,33.67
2019-01-25T12:05:25.025Z,39.13
2019-01-25T12:07:56.348Z,36.90
2019-01-25T12:10:30.347Z,28.90
2019-01-25T12:12:59.011Z,31.33
2019-01-25T12:15:27.698Z,43.13
2019-01-25T12:17:58.235Z,34.73
2019-01-25T12:20:28.857Z,40.23
2019-01-25T12:22:57.716Z,40.10
2019-01-25T12:25:26.430Z,42.20
2019-01-25T12:27:55.238Z,40.43
2019-01-25T12:30:28.855Z,48.70
2019-01-25T12:32:57.401Z,43.27
2019-01-25T12:35:27.637Z,44.93
2019-01-25T12:37:56.248Z,43.67
2019-01-25T12:40:25.654Z,28.50
2019-01-25T12:42:54.249Z,44.17
2019-01-25T12:45:28.022Z,36.80
2019-01-25T12:47:56.623Z,46.00
2019-01-25T12:50:30.824Z,48.60
2019-01-25T12:53:00.202Z,37.80
2019-01-25T12:55:32.596Z,73.53
2019-01-25T12:57:59.965Z,32.50
2019-01-25T13:00:30.623Z,50.27
2019-01-25T13:03:00.431Z,32.03
2019-01-25T13:05:29.135Z,47.70
2019-01-25T13:07:57.736Z,49.40
2019-01-25T13:10:27.536Z,52.70
2019-01-25T13:12:56.552Z,47.17
2019-01-25T13:15:25.666Z,45.33
2019-01-25T13:17:55.100Z,48.17
2019-01-25T13:20:30.972Z,53.77
2019-01-25T13:22:59.693Z,46.13
2019-01-25T13:25:28.247Z,51.23
2019-01-25T13:27:57.130Z,40.13
2019-01-25T13:30:28.331Z,40.67
2019-01-25T13:32:58.227Z,40.65
2019-01-25T13:35:26.848Z,35.30
2019-01-25T13:37:55.441Z,36.30
2019-01-25T13:40:26.230Z,61.83
2019-01-25T13:42:55.890Z,42.17
2019-01-25T13:45:25.256Z,51.53
2019-01-25T13:47:54.357Z,52.67
2019-01-25T13:50:29.938Z,47.33
2019-01-25T13:52:58.576Z,49.70
2019-01-25T13:55:28.206Z,33.10
2019-01-25T13:57:56.807Z,48.07
2019-01-25T14:00:31.086Z,49.07
2019-01-25T14:02:59.970Z,44.38
2019-01-25T14:05:28.639Z,30.25
2019-01-25T14:07:57.633Z,35.43
2019-01-25T14:10:31.450Z,44.00
2019-01-25T14:13:00.300Z,49.43
2019-01-25T14:15:30.559Z,46.10
2019-01-25T14:18:00.116Z,46.30
2019-01-25T14:20:31.821Z,25.37
2019-01-25T14:23:00.483Z,40.40
2019-01-25T14:25:29.517Z,31.23
2019-01-25T14:27:59.238Z,46.87
2019-01-25T14:30:37.346Z,35.40
2019-01-25T14:33:07.459Z,31.73
2019-01-25T14:35:36.406Z,38.00
2019-01-25T14:38:05.922Z,48.25
2019-01-25T14:40:34.629Z,44.80
2019-01-25T14:43:09.364Z,47.40
2019-01-25T14:45:39.297Z,43.58
2019-01-25T14:48:08.155Z,44.20
2019-01-25T14:50:36.943Z,17.10
2019-01-25T14:53:06.234Z,41.90
2019-01-25T14:55:34.704Z,44.13
2019-01-25T14:58:03.314Z,38.30
2019-01-25T15:00:31.973Z,46.50
2019-01-25T15:03:00.461Z,37.67
2019-01-25T15:05:29.006Z,38.40
2019-01-25T15:07:57.720Z,30.10
2019-01-25T15:10:26.338Z,32.43
2019-01-25T15:12:56.895Z,32.38
2019-01-25T15:15:26.455Z,41.40
2019-01-25T15:17:55.076Z,42.47
2019-01-25T15:20:26.033Z,37.48
2019-01-25T15:22:54.733Z,22.45
2019-01-25T15:25:23.457Z,35.00
2019-01-25T15:27:52.013Z,34.58
2019-01-25T15:30:26.432Z,33.45
2019-01-25T15:32:55.251Z,33.05
2019-01-25T15:35:24.033Z,33.13
2019-01-25T15:37:52.697Z,34.13
2019-01-25T15:40:22.319Z,21.57
2019-01-25T15:42:51.105Z,32.23
2019-01-25T15:45:21.538Z,24.35
2019-01-25T15:47:50.339Z,27.30
2019-01-25T15:50:27.109Z,33.15
2019-01-25T15:52:56.513Z,24.98
2019-01-25T15:55:26.753Z,35.55
2019-01-25T15:57:55.363Z,33.40
2019-01-25T16:00:28.401Z,38.63
2019-01-25T16:02:57.028Z,33.28
2019-01-25T16:05:25.903Z,35.13
2019-01-25T16:07:55.556Z,36.65
2019-01-25T16:10:24.331Z,27.60
2019-01-25T16:12:53.619Z,35.38
2019-01-25T16:15:28.318Z,49.30
2019-01-25T16:17:57.090Z,28.00
2019-01-25T16:20:25.694Z,24.80
2019-01-25T16:22:55.528Z,20.77
2019-01-25T16:25:29.867Z,20.00
2019-01-25T16:27:59.566Z,33.40
2019-01-25T16:30:33.202Z,39.43
2019-01-25T16:33:01.751Z,36.10
2019-01-25T16:35:30.295Z,34.13
2019-01-25T16:37:58.925Z,31.75
2019-01-25T16:40:29.846Z,39.00
2019-01-25T16:42:58.405Z,43.65
2019-01-25T16:45:32.678Z,32.45
2019-01-25T16:48:01.295Z,32.63
2019-01-25T16:50:31.774Z,28.53
2019-01-25T16:53:00.512Z,39.55
2019-01-25T16:55:30.269Z,41.05
2019-01-25T16:57:58.823Z,31.20
2019-01-25T17:00:35.930Z,48.73
2019-01-25T17:03:04.747Z,37.78
2019-01-25T17:05:33.453Z,22.40
2019-01-25T17:08:02.064Z,33.33
2019-01-25T17:10:30.726Z,43.37
2019-01-25T17:12:59.215Z,30.13
2019-01-25T17:15:28.556Z,42.10
2019-01-25T17:17:57.196Z,53.05
2019-01-25T17:20:27.402Z,49.90
2019-01-25T17:22:56.011Z,44.42
2019-01-25T17:25:26.558Z,44.42
2019-01-25T17:27:55.165Z,45.23
2019-01-25T17:30:31.736Z,39.27
2019-01-25T17:33:01.152Z,43.20
2019-01-25T17:35:30.284Z,45.75
2019-01-25T17:37:58.950Z,48.23
2019-01-25T17:40:33.581Z,61.60
2019-01-25T17:43:02.050Z,49.87
2019-01-25T17:45:30.721Z,52.27
2019-01-25T17:47:59.262Z,44.00
2019-01-25T17:50:27.838Z,32.03
2019-01-25T17:52:56.630Z,37.63
2019-01-25T17:55:25.248Z,31.87
2019-01-25T17:57:53.867Z,43.00
2019-01-25T18:00:35.003Z,30.72
2019-01-25T18:03:03.580Z,33.00
2019-01-25T18:05:32.088Z,44.85
2019-01-25T18:08:00.616Z,35.40
2019-01-25T18:10:29.364Z,36.43
2019-01-25T18:12:57.923Z,39.57
2019-01-25T18:15:26.528Z,23.40
2019-01-25T18:17:55.046Z,32.03
2019-01-25T18:20:24.593Z,42.57
2019-01-25T18:22:54.433Z,38.93
2019-01-25T18:25:25.967Z,42.03
2019-01-25T18:27:57.571Z,44.13
2019-01-25T18:30:51.367Z,42.73
2019-01-25T18:33:19.844Z,38.37
2019-01-25T18:35:48.482Z,31.10
2019-01-25T18:38:17.147Z,39.70
2019-01-25T18:40:45.623Z,35.70
2019-01-25T18:43:14.095Z,45.70
2019-01-25T18:45:42.808Z,31.90
2019-01-25T18:48:12.239Z,37.23
2019-01-25T18:50:40.844Z,44.80
2019-01-25T18:53:09.538Z,38.37
2019-01-25T18:55:39.479Z,46.10
2019-01-25T18:58:08.021Z,37.43
2019-01-25T19:00:37.523Z,47.03
2019-01-25T19:03:06.143Z,45.47
2019-01-25T19:05:35.316Z,52.10
2019-01-25T19:08:04.106Z,27.57
2019-01-25T19:10:32.745Z,48.27
2019-01-25T19:13:03.563Z,44.65
2019-01-25T19:15:32.798Z,48.67
2019-01-25T19:18:01.360Z,52.50
2019-01-25T19:20:30.083Z,46.97
2019-01-25T19:22:58.767Z,47.53
2019-01-25T19:25:27.297Z,39.90
2019-01-25T19:27:55.966Z,42.50
2019-01-25T19:30:31.021Z,41.33
2019-01-25T19:32:59.712Z,52.17
2019-01-25T19:35:28.452Z,35.93
2019-01-25T19:40:57.075Z,37.70
2019-01-25T19:43:56.295Z,35.93
2019-01-25T19:46:25.127Z,45.75
2019-01-25T19:48:54.204Z,47.98
2019-01-25T19:51:22.832Z,40.90
2019-01-25T19:53:52.529Z,43.15
2019-01-25T20:00:36.724Z,45.33
2019-01-25T20:03:06.568Z,32.63
2019-01-25T20:05:35.291Z,34.27
2019-01-25T20:08:05.552Z,37.50
2019-01-25T20:10:34.213Z,38.60
2019-01-25T20:13:02.815Z,40.17
2019-01-25T20:15:32.351Z,34.20
2019-01-25T20:18:00.884Z,42.73
2019-01-25T20:20:37.814Z,39.07
2019-01-25T20:23:06.715Z,37.93
2019-01-25T20:25:35.313Z,50.10
2019-01-25T20:28:05.663Z,44.03
2019-01-25T20:30:34.600Z,45.37
2019-01-25T20:33:04.860Z,41.55
2019-01-25T20:35:41.380Z,47.55
2019-01-25T20:38:11.294Z,44.95
2019-01-25T20:40:40.190Z,50.63
2019-01-25T20:43:09.098Z,50.40
2019-01-25T20:45:40.326Z,48.80
2019-01-25T20:48:09.393Z,43.98
2019-01-25T20:50:39.138Z,48.00
2019-01-25T20:53:10.065Z,45.17
2019-01-25T20:55:38.767Z,49.80
2019-01-25T20:58:07.542Z,50.45
2019-01-25T21:00:39.621Z,48.03
2019-01-25T21:03:10.546Z,60.60
2019-01-25T21:05:39.158Z,81.02
2019-01-25T21:08:07.808Z,102.30
2019-01-25T21:10:36.373Z,97.47
2019-01-25T21:13:05.470Z,78.52
2019-01-25T21:15:35.320Z,81.90
2019-01-25T21:18:05.285Z,98.50
2019-01-25T21:20:40.030Z,101.00
2019-01-25T21:23:08.651Z,90.40
2019-01-25T21:25:37.288Z,93.00
2019-01-25T21:28:06.148Z,95.95
2019-01-25T21:30:36.261Z,71.13
2019-01-25T21:33:05.568Z,63.25
2019-01-25T21:35:34.276Z,62.50
2019-01-25T21:38:02.981Z,69.75
2019-01-25T21:40:34.835Z,105.50
2019-01-25T21:43:03.634Z,146.45
2019-01-25T21:45:34.138Z,155.15
2019-01-25T21:48:04.053Z,194.25
2019-01-25T21:50:41.338Z,187.03
2019-01-25T21:53:10.075Z,204.75
2019-01-25T21:55:38.626Z,123.13
2019-01-25T21:58:08.346Z,101.25
2019-01-25T22:00:37.173Z,101.33
2019-01-25T22:03:06.506Z,105.70
2019-01-25T22:05:35.185Z,109.37
2019-01-25T22:08:04.154Z,112.75
2019-01-25T22:10:35.506Z,108.00
2019-01-25T22:13:04.393Z,130.27
2019-01-25T22:15:34.649Z,146.82
2019-01-25T22:18:04.996Z,124.62
2019-01-25T22:20:33.773Z,102.57
2019-01-25T22:23:02.260Z,91.60
2019-01-25T22:25:31.733Z,81.53
2019-01-25T22:28:00.375Z,82.40
2019-01-25T22:30:30.147Z,79.32
2019-01-25T22:32:58.631Z,80.28
2019-01-25T22:35:27.857Z,79.55
2019-01-25T22:37:56.508Z,80.80
2019-01-25T22:40:29.475Z,77.13
2019-01-25T22:42:58.272Z,82.45
2019-01-25T22:45:28.696Z,90.90
2019-01-25T22:47:58.248Z,82.25
2019-01-25T22:50:29.248Z,77.13
2019-01-25T22:52:57.979Z,70.67
2019-01-25T22:55:26.804Z,72.85
2019-01-25T22:57:55.347Z,82.82
2019-01-25T23:00:46.616Z,83.22
2019-01-25T23:03:19.079Z,76.82
2019-01-25T23:06:07.275Z,71.00
2019-01-25T23:08:35.820Z,70.05
2019-01-25T23:11:04.451Z,70.93
2019-01-25T23:13:33.098Z,85.87
2019-01-25T23:16:06.273Z,86.57
2019-01-25T23:18:31.954Z,76.22
2019-01-25T23:21:00.492Z,81.97
2019-01-25T23:23:29.114Z,90.00
2019-01-25T23:25:57.591Z,84.42
2019-01-25T23:28:26.139Z,80.83
2019-01-25T23:30:55.638Z,71.23
2019-01-25T23:33:24.126Z,67.65
2019-01-25T23:35:53.673Z,62.75
2019-01-25T23:38:22.439Z,64.37
2019-01-25T23:40:53.110Z,63.93
2019-01-25T23:43:21.655Z,60.70
2019-01-25T23:45:50.189Z,62.17
2019-01-25T23:48:18.660Z,59.23
2019-01-25T23:50:47.152Z,58.10
2019-01-25T23:53:15.910Z,63.50
2019-01-25T23:55:45.355Z,58.65
2019-01-25T23:58:13.834Z,57.93
